createdAt,value
2022-08-20T00:02:10.610Z,9.07
2022-08-20T00:04:55.766Z,8.07
2022-08-20T00:07:41.643Z,6.53
2022-08-20T00:10:28.592Z,6.15
2022-08-20T00:13:18.236Z,9.85
2022-08-20T00:16:04.979Z,12.50
2022-08-20T00:18:51.039Z,5.75
2022-08-20T00:21:36.577Z,9.20
2022-08-20T00:24:21.973Z,8.35
2022-08-20T00:27:07.364Z,6.40
2022-08-20T00:29:52.674Z,8.23
2022-08-20T00:32:53.211Z,6.80
2022-08-20T00:35:42.263Z,10.13
2022-08-20T00:38:27.374Z,10.50
2022-08-20T00:41:19.256Z,11.85
2022-08-20T00:44:21.942Z,7.60
2022-08-20T00:47:09.169Z,8.90
2022-08-20T00:49:54.317Z,9.02
2022-08-20T00:52:42.815Z,10.38
2022-08-20T00:55:36.408Z,10.60
2022-08-20T00:58:22.049Z,8.98
2022-08-20T01:01:09.410Z,13.52
2022-08-20T01:03:56.507Z,10.20
2022-08-20T01:06:42.315Z,9.70
2022-08-20T01:09:33.526Z,11.02
2022-08-20T01:12:33.659Z,10.20
2022-08-20T01:15:23.517Z,10.38
2022-08-20T01:18:25.043Z,11.38
2022-08-20T01:21:10.895Z,10.80
2022-08-20T01:23:59.244Z,9.75
2022-08-20T01:26:49.119Z,12.32
2022-08-20T01:29:39.595Z,10.48
2022-08-20T01:32:24.783Z,10.35
2022-08-20T01:35:10.490Z,8.88
2022-08-20T01:37:55.862Z,12.77
2022-08-20T01:41:10.490Z,12.13
2022-08-20T01:43:57.151Z,11.93
2022-08-20T01:46:46.830Z,9.18
2022-08-20T01:49:35.366Z,11.02
2022-08-20T01:52:49.323Z,11.38
2022-08-20T01:55:35.268Z,9.75
2022-08-20T01:58:21.090Z,10.02
2022-08-20T02:01:06.352Z,10.52
2022-08-20T02:03:52.135Z,10.77
2022-08-20T02:06:42.327Z,11.68
2022-08-20T02:09:42.634Z,11.07
2022-08-20T02:12:27.758Z,12.68
2022-08-20T02:15:13.851Z,12.80
2022-08-20T02:17:58.845Z,12.13
2022-08-20T02:20:45.110Z,15.50
2022-08-20T02:23:30.010Z,9.98
2022-08-20T02:26:18.999Z,9.55
2022-08-20T02:29:07.769Z,14.68
2022-08-20T02:32:24.210Z,10.82
2022-08-20T02:35:02.208Z,13.52
2022-08-20T02:37:47.323Z,13.55
2022-08-20T02:40:33.215Z,14.75
2022-08-20T02:43:21.314Z,12.43
2022-08-20T02:46:07.540Z,14.02
2022-08-20T02:48:52.693Z,12.90
2022-08-20T02:51:38.092Z,19.00
2022-08-20T02:54:24.303Z,14.18
2022-08-20T02:57:14.738Z,16.10
2022-08-20T03:00:00.309Z,14.35
2022-08-20T03:02:45.762Z,16.27
2022-08-20T03:05:31.382Z,13.70
2022-08-20T03:08:17.767Z,14.95
2022-08-20T03:11:04.609Z,12.15
2022-08-20T03:13:50.069Z,12.48
2022-08-20T03:16:35.394Z,11.98
2022-08-20T03:19:21.142Z,12.82
2022-08-20T03:22:06.508Z,11.93
2022-08-20T03:24:51.864Z,15.32
2022-08-20T03:27:39.411Z,13.43
2022-08-20T03:30:27.130Z,14.48
2022-08-20T03:33:12.219Z,12.75
2022-08-20T03:35:58.743Z,14.93
2022-08-20T03:38:44.095Z,12.68
2022-08-20T03:41:29.627Z,16.25
2022-08-20T03:44:14.757Z,11.50
2022-08-20T03:47:00.180Z,13.23
2022-08-20T03:49:46.282Z,12.25
2022-08-20T03:52:31.977Z,11.27
2022-08-20T03:55:17.177Z,11.32
2022-08-20T03:58:06.960Z,12.32
2022-08-20T04:00:52.242Z,13.13
2022-08-20T04:03:37.735Z,18.05
2022-08-20T04:06:23.086Z,16.10
2022-08-20T04:09:09.442Z,14.40
2022-08-20T04:11:58.708Z,13.20
2022-08-20T04:14:44.142Z,10.70
2022-08-20T04:17:29.435Z,13.07
2022-08-20T04:20:22.466Z,11.75
2022-08-20T04:23:08.626Z,14.30
2022-08-20T04:25:56.574Z,10.48
2022-08-20T04:28:42.215Z,10.65
2022-08-20T04:31:33.048Z,11.50
2022-08-20T04:34:19.423Z,10.93
2022-08-20T04:37:05.086Z,13.07
2022-08-20T04:40:09.269Z,12.13
2022-08-20T04:42:54.633Z,10.32
2022-08-20T04:45:40.321Z,13.38
2022-08-20T04:48:28.126Z,11.40
2022-08-20T04:51:15.070Z,11.32
2022-08-20T04:54:01.332Z,11.82
2022-08-20T04:56:48.175Z,12.02
2022-08-20T04:59:34.003Z,11.85
2022-08-20T05:02:20.199Z,11.93
2022-08-20T05:05:08.391Z,16.20
2022-08-20T05:07:54.285Z,13.63
2022-08-20T05:10:40.650Z,12.65
2022-08-20T05:13:27.570Z,13.50
2022-08-20T05:16:13.156Z,12.32
2022-08-20T05:18:58.278Z,14.85
2022-08-20T05:21:43.619Z,14.52
2022-08-20T05:24:28.891Z,13.05
2022-08-20T05:27:24.567Z,11.63
2022-08-20T05:30:13.469Z,14.95
2022-08-20T05:33:04.379Z,13.75
2022-08-20T05:35:52.508Z,16.35
2022-08-20T05:38:38.038Z,21.60
2022-08-20T05:41:29.416Z,18.10
2022-08-20T05:44:15.457Z,20.38
2022-08-20T05:47:01.869Z,17.17
2022-08-20T05:49:49.590Z,16.95
2022-08-20T05:52:35.239Z,15.38
2022-08-20T05:55:20.473Z,16.67
2022-08-20T05:58:09.141Z,14.90
2022-08-20T06:00:55.026Z,16.50
2022-08-20T06:03:59.043Z,16.95
2022-08-20T06:06:47.112Z,16.98
2022-08-20T06:09:33.479Z,15.75
2022-08-20T06:12:18.681Z,18.65
2022-08-20T06:15:06.631Z,17.33
2022-08-20T06:17:58.366Z,16.70
2022-08-20T06:20:46.015Z,15.60
2022-08-20T06:23:54.203Z,18.83
2022-08-20T06:26:37.037Z,17.17
2022-08-20T06:29:22.122Z,19.55
2022-08-20T06:32:07.936Z,18.45
2022-08-20T06:34:53.232Z,16.10
2022-08-20T06:37:40.284Z,19.58
2022-08-20T06:40:28.435Z,16.95
2022-08-20T06:43:13.967Z,17.42
2022-08-20T06:45:59.248Z,18.00
2022-08-20T06:48:44.554Z,15.80
2022-08-20T06:51:30.788Z,17.65
2022-08-20T06:54:15.824Z,15.43
2022-08-20T06:57:03.216Z,17.27
2022-08-20T06:59:54.352Z,15.90
2022-08-20T07:02:40.764Z,16.35
2022-08-20T07:05:26.708Z,17.08
2022-08-20T07:08:14.563Z,15.95
2022-08-20T07:10:59.895Z,18.23
2022-08-20T07:13:45.405Z,15.60
2022-08-20T07:16:31.129Z,15.32
2022-08-20T07:19:16.600Z,17.60
2022-08-20T07:22:02.018Z,18.48
2022-08-20T07:24:50.146Z,18.85
2022-08-20T07:27:35.678Z,15.85
2022-08-20T07:30:57.009Z,13.55
2022-08-20T07:33:44.604Z,13.98
2022-08-20T07:36:30.723Z,12.82
2022-08-20T07:39:15.997Z,12.02
2022-08-20T07:42:07.166Z,13.70
2022-08-20T07:44:52.666Z,13.73
2022-08-20T07:47:39.192Z,14.55
2022-08-20T07:50:26.527Z,12.75
2022-08-20T07:53:12.070Z,11.90
2022-08-20T07:55:59.308Z,11.05
2022-08-20T07:58:49.865Z,12.57
2022-08-20T08:01:35.376Z,11.07
2022-08-20T08:04:20.788Z,11.38
2022-08-20T08:07:06.879Z,14.50
2022-08-20T08:09:53.271Z,12.48
2022-08-20T08:12:43.228Z,13.15
2022-08-20T08:15:32.537Z,11.52
2022-08-20T08:18:26.797Z,14.20
2022-08-20T08:21:14.198Z,13.60
2022-08-20T08:23:59.593Z,13.10
2022-08-20T08:26:45.036Z,13.05
2022-08-20T08:29:30.415Z,12.82
2022-08-20T08:32:16.014Z,13.20
2022-08-20T08:35:06.079Z,14.13
2022-08-20T08:37:51.507Z,15.02
2022-08-20T08:40:36.903Z,13.52
2022-08-20T08:43:27.939Z,14.20
2022-08-20T08:46:21.527Z,15.20
2022-08-20T08:49:07.789Z,13.70
2022-08-20T08:52:04.431Z,14.55
2022-08-20T08:54:55.067Z,16.95
2022-08-20T08:57:41.333Z,16.30
2022-08-20T09:00:29.079Z,16.13
2022-08-20T09:03:29.361Z,16.13
2022-08-20T09:06:21.747Z,15.98
2022-08-20T09:09:17.835Z,16.30
2022-08-20T09:12:07.223Z,16.80
2022-08-20T09:14:52.656Z,16.38
2022-08-20T09:17:37.821Z,15.93
2022-08-20T09:20:27.278Z,15.55
2022-08-20T09:23:12.438Z,13.18
2022-08-20T09:25:58.312Z,14.45
2022-08-20T09:28:43.411Z,14.48
2022-08-20T09:31:28.914Z,14.95
2022-08-20T09:34:14.225Z,15.30
2022-08-20T09:36:59.494Z,14.68
2022-08-20T09:39:45.159Z,15.25
2022-08-20T09:42:36.196Z,14.52
2022-08-20T09:45:24.695Z,15.82
2022-08-20T09:48:10.205Z,16.17
2022-08-20T09:50:55.848Z,17.50
2022-08-20T09:53:41.627Z,16.80
2022-08-20T09:56:27.202Z,14.85
2022-08-20T09:59:15.363Z,18.55
2022-08-20T10:02:00.420Z,13.25
2022-08-20T10:04:45.797Z,15.65
2022-08-20T10:07:31.022Z,17.60
2022-08-20T10:10:16.523Z,16.73
2022-08-20T10:13:02.549Z,15.20
2022-08-20T10:15:47.771Z,16.60
2022-08-20T10:18:34.221Z,16.40
2022-08-20T10:21:19.643Z,14.80
2022-08-20T10:24:05.455Z,15.65
2022-08-20T10:26:50.859Z,21.25
2022-08-20T10:29:36.413Z,17.17
2022-08-20T10:32:21.858Z,18.95
2022-08-20T10:35:07.418Z,15.80
2022-08-20T10:37:52.866Z,16.77
2022-08-20T10:40:38.057Z,17.67
2022-08-20T10:43:23.515Z,19.23
2022-08-20T10:46:09.300Z,16.17
2022-08-20T10:48:54.686Z,17.10
2022-08-20T10:51:40.044Z,21.05
2022-08-20T10:54:25.973Z,16.48
2022-08-20T10:57:17.770Z,17.23
2022-08-20T11:00:05.566Z,15.43
2022-08-20T11:02:51.766Z,17.23
2022-08-20T11:05:37.356Z,14.80
2022-08-20T11:08:33.441Z,15.93
2022-08-20T11:11:19.983Z,17.30
2022-08-20T11:14:05.476Z,16.30
2022-08-20T11:16:50.834Z,18.17
2022-08-20T11:19:44.496Z,16.13
2022-08-20T11:22:29.809Z,16.33
2022-08-20T11:25:15.580Z,14.70
2022-08-20T11:28:00.734Z,17.02
2022-08-20T11:30:46.556Z,12.95
2022-08-20T11:33:32.098Z,15.30
2022-08-20T11:36:17.482Z,16.88
2022-08-20T11:39:03.659Z,12.55
2022-08-20T11:41:48.967Z,16.63
2022-08-20T11:44:40.802Z,16.00
2022-08-20T11:47:30.081Z,16.55
2022-08-20T11:50:19.548Z,16.33
2022-08-20T11:53:05.661Z,16.67
2022-08-20T11:55:53.026Z,15.63
2022-08-20T11:58:38.378Z,17.58
2022-08-20T12:01:23.902Z,14.85
2022-08-20T12:04:09.242Z,16.58
2022-08-20T12:06:54.551Z,18.80
2022-08-20T12:09:51.096Z,15.80
2022-08-20T12:12:38.884Z,18.23
2022-08-20T12:15:24.227Z,18.63
2022-08-20T12:18:10.408Z,21.17
2022-08-20T12:20:55.797Z,17.65
2022-08-20T12:23:41.272Z,17.48
2022-08-20T12:26:26.756Z,19.38
2022-08-20T12:29:12.150Z,17.80
2022-08-20T12:31:57.328Z,16.52
2022-08-20T12:34:43.118Z,16.88
2022-08-20T12:37:30.462Z,20.60
2022-08-20T12:40:31.815Z,19.40
2022-08-20T12:43:22.875Z,22.42
2022-08-20T12:46:10.209Z,16.65
2022-08-20T12:48:55.447Z,15.68
2022-08-20T12:51:40.833Z,18.75
2022-08-20T12:54:26.251Z,19.15
2022-08-20T12:57:16.638Z,17.23
2022-08-20T13:00:15.398Z,14.50
2022-08-20T13:03:02.730Z,18.88
2022-08-20T13:05:48.939Z,19.63
2022-08-20T13:08:34.308Z,17.58
2022-08-20T13:11:19.494Z,25.25
2022-08-20T13:14:05.307Z,20.80
2022-08-20T13:16:56.497Z,21.13
2022-08-20T13:19:41.605Z,20.27
2022-08-20T13:22:27.000Z,21.83
2022-08-20T13:25:13.619Z,21.90
2022-08-20T13:28:00.772Z,22.88
2022-08-20T13:30:45.951Z,22.83
2022-08-20T13:33:31.289Z,23.48
2022-08-20T13:36:16.848Z,25.10
2022-08-20T13:39:07.522Z,23.60
2022-08-20T13:41:52.575Z,21.70
2022-08-20T13:44:38.538Z,21.10
2022-08-20T13:47:25.298Z,19.10
2022-08-20T13:50:17.476Z,19.33
2022-08-20T13:53:02.908Z,18.55
2022-08-20T13:55:48.053Z,18.42
2022-08-20T13:58:33.559Z,23.35
2022-08-20T14:01:18.854Z,19.77
2022-08-20T14:04:04.451Z,20.73
2022-08-20T14:06:49.821Z,23.33
2022-08-20T14:09:38.684Z,24.77
2022-08-20T14:12:24.496Z,23.08
2022-08-20T14:15:10.727Z,20.23
2022-08-20T14:17:57.491Z,25.33
2022-08-20T14:20:45.306Z,24.23
2022-08-20T14:23:31.059Z,26.02
2022-08-20T14:26:22.509Z,22.95
2022-08-20T14:29:07.827Z,24.30
2022-08-20T14:31:53.355Z,27.65
2022-08-20T14:34:39.788Z,26.35
2022-08-20T14:37:43.209Z,27.17
2022-08-20T14:40:28.872Z,28.63
2022-08-20T14:43:14.207Z,26.55
2022-08-20T14:45:59.512Z,28.17
2022-08-20T14:48:44.785Z,26.45
2022-08-20T14:51:38.790Z,30.20
2022-08-20T14:54:24.188Z,29.88
2022-08-20T14:57:13.421Z,29.33
2022-08-20T14:59:59.128Z,27.90
2022-08-20T15:02:45.297Z,25.70
2022-08-20T15:05:31.393Z,30.13
2022-08-20T15:08:16.448Z,27.27
2022-08-20T15:11:02.460Z,25.02
2022-08-20T15:13:48.012Z,26.38
2022-08-20T15:16:34.005Z,27.02
2022-08-20T15:19:19.660Z,29.25
2022-08-20T15:22:05.738Z,26.77
2022-08-20T15:24:51.494Z,26.85
2022-08-20T15:27:43.539Z,28.40
2022-08-20T15:30:30.155Z,28.23
2022-08-20T15:33:15.085Z,29.67
2022-08-20T15:36:00.364Z,25.30
2022-08-20T15:38:46.124Z,26.13
2022-08-20T15:41:34.544Z,25.88
2022-08-20T15:44:20.059Z,25.70
2022-08-20T15:47:20.298Z,28.58
2022-08-20T15:50:34.248Z,21.85
2022-08-20T15:53:35.615Z,24.48
2022-08-20T15:56:38.763Z,25.00
2022-08-20T15:59:47.629Z,22.17
2022-08-20T16:02:59.026Z,25.73
2022-08-20T16:06:03.310Z,27.27
2022-08-20T16:09:10.748Z,24.63
2022-08-20T16:11:58.835Z,24.05
2022-08-20T16:14:46.895Z,26.95
2022-08-20T16:17:42.484Z,24.95
2022-08-20T16:20:49.219Z,23.17
2022-08-20T16:23:38.782Z,28.08
2022-08-20T16:27:09.179Z,28.42
2022-08-20T16:30:00.785Z,24.63
2022-08-20T16:32:53.094Z,26.42
2022-08-20T16:35:54.505Z,24.30
2022-08-20T16:38:48.191Z,26.85
2022-08-20T16:41:58.162Z,24.30
2022-08-20T16:44:54.450Z,28.25
2022-08-20T16:47:41.092Z,27.65
2022-08-20T16:50:31.745Z,28.52
2022-08-20T16:53:21.331Z,26.67
2022-08-20T16:56:06.598Z,29.55
2022-08-20T16:58:52.158Z,32.13
2022-08-20T17:01:38.178Z,28.33
2022-08-20T17:04:23.541Z,29.60
2022-08-20T17:07:08.911Z,27.83
2022-08-20T17:10:12.076Z,30.85
2022-08-20T17:13:03.745Z,29.30
2022-08-20T17:16:01.559Z,33.53
2022-08-20T17:18:48.247Z,31.13
2022-08-20T17:21:38.250Z,30.90
2022-08-20T17:24:30.191Z,31.02
2022-08-20T17:27:33.339Z,30.90
2022-08-20T17:30:21.473Z,29.58
2022-08-20T17:33:18.425Z,30.67
2022-08-20T17:36:22.206Z,35.00
2022-08-20T17:39:16.561Z,32.97
2022-08-20T17:42:17.271Z,33.78
2022-08-20T17:45:11.855Z,32.00
2022-08-20T17:47:59.743Z,30.92
2022-08-20T17:50:45.131Z,29.55
2022-08-20T17:53:35.779Z,28.42
2022-08-20T17:56:28.234Z,30.98
2022-08-20T18:00:00.265Z,34.53
2022-08-20T18:02:34.805Z,34.70
2022-08-20T18:05:21.524Z,24.77
2022-08-20T18:08:19.654Z,23.73
2022-08-20T18:11:23.236Z,24.52
2022-08-20T18:14:25.820Z,22.95
2022-08-20T18:17:36.385Z,20.90
2022-08-20T18:20:42.847Z,23.05
2022-08-20T18:23:57.214Z,20.10
2022-08-20T18:26:56.752Z,18.27
2022-08-20T18:29:46.679Z,20.60
2022-08-20T18:32:37.983Z,18.10
2022-08-20T18:35:45.521Z,17.13
2022-08-20T18:38:34.446Z,15.65
2022-08-20T18:41:40.376Z,21.35
2022-08-20T18:44:41.935Z,17.25
2022-08-20T18:47:38.837Z,19.42
2022-08-20T18:50:39.115Z,18.58
2022-08-20T18:53:33.944Z,17.42
2022-08-20T18:56:34.987Z,18.67
2022-08-20T18:59:20.806Z,21.35
2022-08-20T19:02:26.203Z,24.77
2022-08-20T19:05:12.997Z,19.45
2022-08-20T19:08:01.421Z,22.08
2022-08-20T19:10:56.975Z,26.38
2022-08-20T19:13:51.751Z,23.30
2022-08-20T19:16:42.057Z,18.88
2022-08-20T19:19:32.662Z,22.13
2022-08-20T19:22:21.016Z,22.30
2022-08-20T19:25:07.180Z,21.10
2022-08-20T19:27:53.372Z,21.30
2022-08-20T19:30:41.517Z,20.27
2022-08-20T19:33:31.503Z,26.17
2022-08-20T19:36:30.206Z,23.70
2022-08-20T19:39:18.494Z,19.20
2022-08-20T19:42:15.267Z,19.77
2022-08-20T19:45:05.974Z,19.33
2022-08-20T19:47:57.478Z,21.50
2022-08-20T19:50:52.233Z,20.95
2022-08-20T19:53:46.090Z,21.85
2022-08-20T19:56:40.713Z,23.33
2022-08-20T19:59:26.344Z,23.80
2022-08-20T20:02:20.565Z,21.13
2022-08-20T20:05:09.232Z,19.80
2022-08-20T20:07:58.506Z,27.85
2022-08-20T20:10:49.575Z,24.13
2022-08-20T20:13:37.647Z,31.05
2022-08-20T20:16:25.158Z,21.67
2022-08-20T20:19:28.627Z,25.88
2022-08-20T20:22:30.806Z,20.23
2022-08-20T20:25:22.072Z,20.90
2022-08-20T20:28:28.979Z,19.65
2022-08-20T20:31:25.280Z,21.35
2022-08-20T20:34:13.562Z,24.55
2022-08-20T20:37:11.550Z,22.20
2022-08-20T20:40:22.706Z,21.50
2022-08-20T20:43:10.567Z,19.52
2022-08-20T20:46:16.569Z,19.00
2022-08-20T20:49:25.343Z,19.50
2022-08-20T20:52:21.847Z,17.88
2022-08-20T20:55:20.890Z,17.48
2022-08-20T20:58:06.229Z,18.55
2022-08-20T21:00:51.606Z,15.85
2022-08-20T21:03:36.897Z,18.15
2022-08-20T21:06:26.942Z,16.30
2022-08-20T21:09:12.342Z,19.13
2022-08-20T21:11:57.447Z,18.10
2022-08-20T21:14:44.968Z,19.58
2022-08-20T21:17:30.424Z,18.63
2022-08-20T21:20:16.273Z,16.55
2022-08-20T21:23:01.520Z,16.73
2022-08-20T21:25:46.937Z,20.45
2022-08-20T21:28:33.746Z,20.92
2022-08-20T21:31:18.843Z,18.50
2022-08-20T21:34:04.329Z,25.38
2022-08-20T21:36:49.861Z,18.83
2022-08-20T21:39:35.341Z,19.33
2022-08-20T21:42:29.343Z,20.13
2022-08-20T21:45:18.509Z,20.08
2022-08-20T21:48:05.304Z,21.58
2022-08-20T21:50:51.259Z,19.58
2022-08-20T21:53:36.639Z,18.42
2022-08-20T21:56:22.474Z,17.27
2022-08-20T21:59:09.358Z,21.10
2022-08-20T22:01:55.023Z,21.23
2022-08-20T22:04:41.030Z,18.20
2022-08-20T22:07:26.462Z,25.05
2022-08-20T22:10:13.098Z,20.80
2022-08-20T22:12:58.445Z,24.23
2022-08-20T22:15:43.706Z,24.42
2022-08-20T22:18:29.198Z,47.88
2022-08-20T22:21:25.014Z,21.42
2022-08-20T22:24:11.433Z,25.45
2022-08-20T22:26:57.017Z,24.73
2022-08-20T22:29:42.421Z,18.45
2022-08-20T22:32:33.472Z,20.65
2022-08-20T22:35:34.048Z,22.95
2022-08-20T22:38:19.524Z,21.05
2022-08-20T22:41:09.417Z,30.55
2022-08-20T22:43:56.867Z,24.52
2022-08-20T22:46:47.543Z,22.25
2022-08-20T22:49:39.616Z,24.27
2022-08-20T22:52:25.496Z,24.73
2022-08-20T22:55:12.202Z,29.83
2022-08-20T22:57:57.622Z,28.20
2022-08-20T23:00:45.291Z,27.98
2022-08-20T23:03:39.265Z,26.75
2022-08-20T23:06:29.470Z,31.48
2022-08-20T23:09:14.549Z,25.27
2022-08-20T23:12:08.158Z,30.38
2022-08-20T23:14:54.804Z,53.38
2022-08-20T23:17:40.265Z,32.10
2022-08-20T23:20:25.829Z,39.15
2022-08-20T23:23:12.083Z,25.02
2022-08-20T23:25:57.744Z,30.95
2022-08-20T23:28:43.032Z,28.33
2022-08-20T23:31:28.523Z,75.97
2022-08-20T23:34:13.760Z,61.42
2022-08-20T23:37:00.974Z,48.83
2022-08-20T23:39:46.447Z,37.80
2022-08-20T23:42:31.937Z,89.28
2022-08-20T23:45:17.626Z,67.53
2022-08-20T23:48:03.519Z,52.53
2022-08-20T23:50:48.607Z,32.15
2022-08-20T23:53:34.360Z,23.27
2022-08-20T23:56:19.559Z,54.15
2022-08-20T23:59:05.785Z,27.27
